sensor_id;sensor_type;location;lat;lon;timestamp;temperature;humidity
11379;DHT22;5744;59.392;16.748;2024-03-25T00:00:13;1.70;99.90
11379;DHT22;5744;59.392;16.748;2024-03-25T00:02:39;1.70;99.90
11379;DHT22;5744;59.392;16.748;2024-03-25T00:05:06;1.70;99.90
11379;DHT22;5744;59.392;16.748;2024-03-25T00:07:32;1.70;99.90
11379;DHT22;5744;59.392;16.748;2024-03-25T00:09:58;1.70;99.90
11379;DHT22;5744;59.392;16.748;2024-03-25T00:12:24;1.70;99.90
11379;DHT22;5744;59.392;16.748;2024-03-25T00:14:50;1.70;99.90
11379;DHT22;5744;59.392;16.748;2024-03-25T00:17:19;1.80;99.90
11379;DHT22;5744;59.392;16.748;2024-03-25T00:19:45;1.70;99.90
11379;DHT22;5744;59.392;16.748;2024-03-25T00:22:11;1.70;99.90
11379;DHT22;5744;59.392;16.748;2024-03-25T00:24:37;1.70;99.90
11379;DHT22;5744;59.392;16.748;2024-03-25T00:27:03;1.60;99.90
11379;DHT22;5744;59.392;16.748;2024-03-25T00:29:29;1.70;99.90
11379;DHT22;5744;59.392;16.748;2024-03-25T00:31:55;1.60;99.90
11379;DHT22;5744;59.392;16.748;2024-03-25T00:34:23;1.60;99.90
11379;DHT22;5744;59.392;16.748;2024-03-25T00:36:49;1.70;99.90
11379;DHT22;5744;59.392;16.748;2024-03-25T00:39:15;1.70;99.90
11379;DHT22;5744;59.392;16.748;2024-03-25T00:41:41;1.70;99.90
11379;DHT22;5744;59.392;16.748;2024-03-25T00:44:06;1.60;99.90
11379;DHT22;5744;59.392;16.748;2024-03-25T00:46:32;1.60;99.90
11379;DHT22;5744;59.392;16.748;2024-03-25T00:48:58;1.60;99.90
11379;DHT22;5744;59.392;16.748;2024-03-25T00:51:26;1.60;99.90
11379;DHT22;5744;59.392;16.748;2024-03-25T00:53:52;1.60;99.90
11379;DHT22;5744;59.392;16.748;2024-03-25T00:56:18;1.60;99.90
11379;DHT22;5744;59.392;16.748;2024-03-25T00:58:44;1.60;99.90
11379;DHT22;5744;59.392;16.748;2024-03-25T01:01:10;1.50;99.90
11379;DHT22;5744;59.392;16.748;2024-03-25T01:03:36;1.60;99.90
11379;DHT22;5744;59.392;16.748;2024-03-25T01:06:02;1.70;99.90
11379;DHT22;5744;59.392;16.748;2024-03-25T01:08:30;1.60;99.90
11379;DHT22;5744;59.392;16.748;2024-03-25T01:10:56;1.50;99.90
11379;DHT22;5744;59.392;16.748;2024-03-25T01:13:22;1.60;99.90
11379;DHT22;5744;59.392;16.748;2024-03-25T01:15:48;1.50;99.90
11379;DHT22;5744;59.392;16.748;2024-03-25T01:18:13;1.60;99.90
11379;DHT22;5744;59.392;16.748;2024-03-25T01:20:39;1.50;99.90
11379;DHT22;5744;59.392;16.748;2024-03-25T01:23:05;1.50;99.90
11379;DHT22;5744;59.392;16.748;2024-03-25T01:25:34;1.60;99.90
11379;DHT22;5744;59.392;16.748;2024-03-25T01:28:00;1.60;99.90
11379;DHT22;5744;59.392;16.748;2024-03-25T01:30:25;1.50;99.90
11379;DHT22;5744;59.392;16.748;2024-03-25T01:32:51;1.70;99.90
11379;DHT22;5744;59.392;16.748;2024-03-25T01:35:17;1.50;99.90
11379;DHT22;5744;59.392;16.748;2024-03-25T01:37:43;1.60;99.90
11379;DHT22;5744;59.392;16.748;2024-03-25T01:40:09;1.60;99.90
11379;DHT22;5744;59.392;16.748;2024-03-25T01:42:38;1.50;99.90
11379;DHT22;5744;59.392;16.748;2024-03-25T01:45:05;1.50;99.90
11379;DHT22;5744;59.392;16.748;2024-03-25T01:47:31;1.50;99.90
11379;DHT22;5744;59.392;16.748;2024-03-25T01:49:57;1.60;99.90
11379;DHT22;5744;59.392;16.748;2024-03-25T01:52:23;1.50;99.90
11379;DHT22;5744;59.392;16.748;2024-03-25T01:54:50;1.50;99.90
11379;DHT22;5744;59.392;16.748;2024-03-25T01:57:16;1.40;99.90
11379;DHT22;5744;59.392;16.748;2024-03-25T01:59:45;1.40;99.90
11379;DHT22;5744;59.392;16.748;2024-03-25T02:02:11;1.40;99.90
11379;DHT22;5744;59.392;16.748;2024-03-25T02:04:37;1.40;99.90
11379;DHT22;5744;59.392;16.748;2024-03-25T02:07:03;1.30;99.90
11379;DHT22;5744;59.392;16.748;2024-03-25T02:09:29;1.40;99.90
11379;DHT22;5744;59.392;16.748;2024-03-25T02:11:55;1.40;99.90
11379;DHT22;5744;59.392;16.748;2024-03-25T02:14:21;1.50;99.90
11379;DHT22;5744;59.392;16.748;2024-03-25T02:16:50;1.30;99.90
11379;DHT22;5744;59.392;16.748;2024-03-25T02:19:16;1.30;99.90
11379;DHT22;5744;59.392;16.748;2024-03-25T02:21:42;1.30;99.90
11379;DHT22;5744;59.392;16.748;2024-03-25T02:24:09;1.40;99.90
11379;DHT22;5744;59.392;16.748;2024-03-25T02:26:38;1.30;99.90
11379;DHT22;5744;59.392;16.748;2024-03-25T02:29:03;1.40;99.90
11379;DHT22;5744;59.392;16.748;2024-03-25T02:31:29;1.30;99.90
11379;DHT22;5744;59.392;16.748;2024-03-25T02:33:55;1.30;99.90
11379;DHT22;5744;59.392;16.748;2024-03-25T02:36:21;1.30;99.90
11379;DHT22;5744;59.392;16.748;2024-03-25T02:38:47;1.30;99.90
11379;DHT22;5744;59.392;16.748;2024-03-25T02:41:13;1.30;99.90
11379;DHT22;5744;59.392;16.748;2024-03-25T02:43:41;1.30;99.90
11379;DHT22;5744;59.392;16.748;2024-03-25T02:46:07;1.30;99.90
11379;DHT22;5744;59.392;16.748;2024-03-25T02:48:34;1.30;99.90
11379;DHT22;5744;59.392;16.748;2024-03-25T02:50:59;1.30;99.90
11379;DHT22;5744;59.392;16.748;2024-03-25T02:53:25;1.20;99.90
11379;DHT22;5744;59.392;16.748;2024-03-25T02:55:51;1.30;99.90
11379;DHT22;5744;59.392;16.748;2024-03-25T02:58:17;1.40;99.90
11379;DHT22;5744;59.392;16.748;2024-03-25T03:00:45;1.30;99.90
11379;DHT22;5744;59.392;16.748;2024-03-25T03:03:11;1.30;99.90
11379;DHT22;5744;59.392;16.748;2024-03-25T03:05:37;1.30;99.90
11379;DHT22;5744;59.392;16.748;2024-03-25T03:08:03;1.30;99.90
11379;DHT22;5744;59.392;16.748;2024-03-25T03:10:29;1.30;99.90
11379;DHT22;5744;59.392;16.748;2024-03-25T03:12:55;1.30;99.90
11379;DHT22;5744;59.392;16.748;2024-03-25T03:15:21;1.30;99.90
11379;DHT22;5744;59.392;16.748;2024-03-25T03:17:49;1.30;99.90
11379;DHT22;5744;59.392;16.748;2024-03-25T03:20:15;1.30;99.90
11379;DHT22;5744;59.392;16.748;2024-03-25T03:22:41;1.20;99.90
11379;DHT22;5744;59.392;16.748;2024-03-25T03:25:08;1.30;99.90
11379;DHT22;5744;59.392;16.748;2024-03-25T03:27:33;1.30;99.90
11379;DHT22;5744;59.392;16.748;2024-03-25T03:29:59;1.20;99.90
11379;DHT22;5744;59.392;16.748;2024-03-25T03:32:25;1.30;99.90
11379;DHT22;5744;59.392;16.748;2024-03-25T03:34:54;1.30;99.90
11379;DHT22;5744;59.392;16.748;2024-03-25T03:37:19;1.40;99.90
11379;DHT22;5744;59.392;16.748;2024-03-25T03:39:45;1.40;99.90
11379;DHT22;5744;59.392;16.748;2024-03-25T03:42:11;1.30;99.90
11379;DHT22;5744;59.392;16.748;2024-03-25T03:44:37;1.40;99.90
11379;DHT22;5744;59.392;16.748;2024-03-25T03:47:03;1.30;99.90
11379;DHT22;5744;59.392;16.748;2024-03-25T03:49:29;1.30;99.90
11379;DHT22;5744;59.392;16.748;2024-03-25T03:51:57;1.40;99.90
11379;DHT22;5744;59.392;16.748;2024-03-25T03:54:23;1.20;99.90
11379;DHT22;5744;59.392;16.748;2024-03-25T03:56:49;1.20;99.90
11379;DHT22;5744;59.392;16.748;2024-03-25T03:59:15;1.10;99.90
11379;DHT22;5744;59.392;16.748;2024-03-25T04:01:41;1.10;99.90
11379;DHT22;5744;59.392;16.748;2024-03-25T04:04:06;1.20;99.90
11379;DHT22;5744;59.392;16.748;2024-03-25T04:06:32;1.20;99.90
11379;DHT22;5744;59.392;16.748;2024-03-25T04:09:01;1.10;99.90
11379;DHT22;5744;59.392;16.748;2024-03-25T04:11:26;1.10;99.90
11379;DHT22;5744;59.392;16.748;2024-03-25T04:13:52;1.10;99.90
11379;DHT22;5744;59.392;16.748;2024-03-25T04:16:18;1.10;99.90
11379;DHT22;5744;59.392;16.748;2024-03-25T04:18:44;1.20;99.90
11379;DHT22;5744;59.392;16.748;2024-03-25T04:21:11;1.10;99.90
11379;DHT22;5744;59.392;16.748;2024-03-25T04:23:37;1.20;99.90
11379;DHT22;5744;59.392;16.748;2024-03-25T04:26:06;1.10;99.90
11379;DHT22;5744;59.392;16.748;2024-03-25T04:28:32;1.10;99.90
11379;DHT22;5744;59.392;16.748;2024-03-25T04:30:57;1.00;99.90
11379;DHT22;5744;59.392;16.748;2024-03-25T04:33:23;1.10;99.90
11379;DHT22;5744;59.392;16.748;2024-03-25T04:35:49;1.10;99.90
11379;DHT22;5744;59.392;16.748;2024-03-25T04:38:15;1.10;99.90
11379;DHT22;5744;59.392;16.748;2024-03-25T04:40:41;1.20;99.90
11379;DHT22;5744;59.392;16.748;2024-03-25T04:43:10;1.20;99.90
11379;DHT22;5744;59.392;16.748;2024-03-25T04:45:36;1.20;99.90
11379;DHT22;5744;59.392;16.748;2024-03-25T04:48:02;1.10;99.90
11379;DHT22;5744;59.392;16.748;2024-03-25T04:50:28;1.10;99.90
11379;DHT22;5744;59.392;16.748;2024-03-25T04:52:54;1.10;99.90
11379;DHT22;5744;59.392;16.748;2024-03-25T04:55:20;1.00;99.90
11379;DHT22;5744;59.392;16.748;2024-03-25T04:57:46;1.00;99.90
11379;DHT22;5744;59.392;16.748;2024-03-25T05:00:14;1.00;99.90
11379;DHT22;5744;59.392;16.748;2024-03-25T05:02:40;0.90;99.90
11379;DHT22;5744;59.392;16.748;2024-03-25T05:05:06;0.90;99.90
11379;DHT22;5744;59.392;16.748;2024-03-25T05:07:32;1.00;99.90
11379;DHT22;5744;59.392;16.748;2024-03-25T05:09:58;1.10;99.90
11379;DHT22;5744;59.392;16.748;2024-03-25T05:12:24;1.10;99.90
11379;DHT22;5744;59.392;16.748;2024-03-25T05:14:51;1.10;99.90
11379;DHT22;5744;59.392;16.748;2024-03-25T05:17:19;1.10;99.90
11379;DHT22;5744;59.392;16.748;2024-03-25T05:19:45;1.00;99.90
11379;DHT22;5744;59.392;16.748;2024-03-25T05:22:11;1.00;99.90
11379;DHT22;5744;59.392;16.748;2024-03-25T05:24:37;0.90;99.90
11379;DHT22;5744;59.392;16.748;2024-03-25T05:27:03;1.00;99.90
11379;DHT22;5744;59.392;16.748;2024-03-25T05:29:29;1.00;99.90
11379;DHT22;5744;59.392;16.748;2024-03-25T05:31:55;1.00;99.90
11379;DHT22;5744;59.392;16.748;2024-03-25T05:34:24;1.20;99.90
11379;DHT22;5744;59.392;16.748;2024-03-25T05:36:50;1.20;99.90
11379;DHT22;5744;59.392;16.748;2024-03-25T05:39:16;1.20;99.90
11379;DHT22;5744;59.392;16.748;2024-03-25T05:41:42;1.20;99.90
11379;DHT22;5744;59.392;16.748;2024-03-25T05:44:08;1.20;99.90
11379;DHT22;5744;59.392;16.748;2024-03-25T05:46:34;1.30;99.90
11379;DHT22;5744;59.392;16.748;2024-03-25T05:49:01;1.20;99.90
11379;DHT22;5744;59.392;16.748;2024-03-25T05:51:30;1.30;99.90
11379;DHT22;5744;59.392;16.748;2024-03-25T05:53:56;1.40;99.90
11379;DHT22;5744;59.392;16.748;2024-03-25T05:56:22;1.40;99.90
11379;DHT22;5744;59.392;16.748;2024-03-25T05:58:48;1.40;99.90
11379;DHT22;5744;59.392;16.748;2024-03-25T06:01:13;1.30;99.90
11379;DHT22;5744;59.392;16.748;2024-03-25T06:03:39;1.30;99.90
11379;DHT22;5744;59.392;16.748;2024-03-25T06:06:05;1.30;99.90
11379;DHT22;5744;59.392;16.748;2024-03-25T06:08:34;1.40;99.90
11379;DHT22;5744;59.392;16.748;2024-03-25T06:11:03;1.50;99.90
11379;DHT22;5744;59.392;16.748;2024-03-25T06:13:29;1.50;99.90
11379;DHT22;5744;59.392;16.748;2024-03-25T06:15:55;1.50;99.90
11379;DHT22;5744;59.392;16.748;2024-03-25T06:18:21;1.60;99.90
11379;DHT22;5744;59.392;16.748;2024-03-25T06:20:47;1.70;99.90
11379;DHT22;5744;59.392;16.748;2024-03-25T06:23:21;1.70;99.90
11379;DHT22;5744;59.392;16.748;2024-03-25T06:25:50;1.70;99.90
11379;DHT22;5744;59.392;16.748;2024-03-25T06:28:16;1.80;99.90
11379;DHT22;5744;59.392;16.748;2024-03-25T06:30:41;1.80;99.90
11379;DHT22;5744;59.392;16.748;2024-03-25T06:33:22;1.80;99.90
11379;DHT22;5744;59.392;16.748;2024-03-25T06:36:03;1.90;99.90
11379;DHT22;5744;59.392;16.748;2024-03-25T06:38:29;1.90;99.90
11379;DHT22;5744;59.392;16.748;2024-03-25T06:40:58;1.80;99.90
11379;DHT22;5744;59.392;16.748;2024-03-25T06:43:24;1.90;99.90
11379;DHT22;5744;59.392;16.748;2024-03-25T06:45:49;2.10;99.90
11379;DHT22;5744;59.392;16.748;2024-03-25T06:48:15;2.00;99.90
11379;DHT22;5744;59.392;16.748;2024-03-25T06:50:41;2.10;99.90
11379;DHT22;5744;59.392;16.748;2024-03-25T06:53:07;2.10;99.90
11379;DHT22;5744;59.392;16.748;2024-03-25T06:55:33;2.10;99.90
11379;DHT22;5744;59.392;16.748;2024-03-25T06:58:01;2.20;99.90
11379;DHT22;5744;59.392;16.748;2024-03-25T07:00:27;2.20;99.90
11379;DHT22;5744;59.392;16.748;2024-03-25T07:02:53;2.20;99.90
11379;DHT22;5744;59.392;16.748;2024-03-25T07:05:19;2.10;99.90
11379;DHT22;5744;59.392;16.748;2024-03-25T07:07:45;2.20;99.90
11379;DHT22;5744;59.392;16.748;2024-03-25T07:10:11;2.20;99.90
11379;DHT22;5744;59.392;16.748;2024-03-25T07:12:37;2.20;99.90
11379;DHT22;5744;59.392;16.748;2024-03-25T07:15:06;2.10;99.90
11379;DHT22;5744;59.392;16.748;2024-03-25T07:17:32;2.10;99.90
11379;DHT22;5744;59.392;16.748;2024-03-25T07:19:57;2.20;99.90
11379;DHT22;5744;59.392;16.748;2024-03-25T07:22:23;2.20;99.90
11379;DHT22;5744;59.392;16.748;2024-03-25T07:24:49;2.20;99.90
11379;DHT22;5744;59.392;16.748;2024-03-25T07:27:15;2.20;99.90
11379;DHT22;5744;59.392;16.748;2024-03-25T07:29:41;2.30;99.90
11379;DHT22;5744;59.392;16.748;2024-03-25T07:32:09;2.30;99.90
11379;DHT22;5744;59.392;16.748;2024-03-25T07:34:35;2.30;99.90
11379;DHT22;5744;59.392;16.748;2024-03-25T07:37:01;2.30;99.90
11379;DHT22;5744;59.392;16.748;2024-03-25T07:39:27;2.40;99.90
11379;DHT22;5744;59.392;16.748;2024-03-25T07:41:53;2.40;99.90
11379;DHT22;5744;59.392;16.748;2024-03-25T07:44:18;2.40;99.90
11379;DHT22;5744;59.392;16.748;2024-03-25T07:46:44;2.50;99.90
11379;DHT22;5744;59.392;16.748;2024-03-25T07:49:13;2.50;99.90
11379;DHT22;5744;59.392;16.748;2024-03-25T07:51:39;2.50;99.90
11379;DHT22;5744;59.392;16.748;2024-03-25T07:54:05;2.60;99.90
11379;DHT22;5744;59.392;16.748;2024-03-25T07:56:31;2.80;99.90
11379;DHT22;5744;59.392;16.748;2024-03-25T07:58:57;2.70;99.90
11379;DHT22;5744;59.392;16.748;2024-03-25T08:01:22;2.80;99.90
11379;DHT22;5744;59.392;16.748;2024-03-25T08:03:48;2.90;99.90
11379;DHT22;5744;59.392;16.748;2024-03-25T08:06:17;2.90;99.90
11379;DHT22;5744;59.392;16.748;2024-03-25T08:08:43;3.00;99.90
11379;DHT22;5744;59.392;16.748;2024-03-25T08:11:08;3.00;99.90
11379;DHT22;5744;59.392;16.748;2024-03-25T08:13:34;3.00;99.90
11379;DHT22;5744;59.392;16.748;2024-03-25T08:16:00;3.00;99.90
11379;DHT22;5744;59.392;16.748;2024-03-25T08:18:26;3.10;99.90
11379;DHT22;5744;59.392;16.748;2024-03-25T08:20:52;3.00;99.90
11379;DHT22;5744;59.392;16.748;2024-03-25T08:23:20;3.10;99.90
11379;DHT22;5744;59.392;16.748;2024-03-25T08:25:46;3.20;99.90
11379;DHT22;5744;59.392;16.748;2024-03-25T08:28:12;3.30;99.90
11379;DHT22;5744;59.392;16.748;2024-03-25T08:30:38;3.40;99.90
11379;DHT22;5744;59.392;16.748;2024-03-25T08:33:04;3.40;99.90
11379;DHT22;5744;59.392;16.748;2024-03-25T08:35:30;3.40;99.90
11379;DHT22;5744;59.392;16.748;2024-03-25T08:37:55;3.30;99.90
11379;DHT22;5744;59.392;16.748;2024-03-25T08:40:24;3.50;99.90
11379;DHT22;5744;59.392;16.748;2024-03-25T08:42:50;3.60;99.90
11379;DHT22;5744;59.392;16.748;2024-03-25T08:45:16;3.70;99.90
11379;DHT22;5744;59.392;16.748;2024-03-25T08:47:43;3.80;99.90
11379;DHT22;5744;59.392;16.748;2024-03-25T08:50:09;3.90;99.90
11379;DHT22;5744;59.392;16.748;2024-03-25T08:52:35;3.80;99.90
11379;DHT22;5744;59.392;16.748;2024-03-25T08:55:01;3.90;99.90
11379;DHT22;5744;59.392;16.748;2024-03-25T08:57:29;4.00;99.90
11379;DHT22;5744;59.392;16.748;2024-03-25T08:59:55;4.00;99.90
11379;DHT22;5744;59.392;16.748;2024-03-25T09:02:21;4.20;99.90
11379;DHT22;5744;59.392;16.748;2024-03-25T09:04:46;4.20;99.90
11379;DHT22;5744;59.392;16.748;2024-03-25T09:07:13;4.30;99.90
11379;DHT22;5744;59.392;16.748;2024-03-25T09:09:39;4.30;99.90
11379;DHT22;5744;59.392;16.748;2024-03-25T09:12:20;4.30;99.90
11379;DHT22;5744;59.392;16.748;2024-03-25T09:14:48;4.30;99.90
11379;DHT22;5744;59.392;16.748;2024-03-25T09:17:14;4.40;99.90
11379;DHT22;5744;59.392;16.748;2024-03-25T09:19:41;4.60;99.90
11379;DHT22;5744;59.392;16.748;2024-03-25T09:22:07;4.80;99.90
11379;DHT22;5744;59.392;16.748;2024-03-25T09:24:33;4.70;99.90
11379;DHT22;5744;59.392;16.748;2024-03-25T09:26:58;4.60;99.90
11379;DHT22;5744;59.392;16.748;2024-03-25T09:29:24;4.60;99.90
11379;DHT22;5744;59.392;16.748;2024-03-25T09:31:53;4.60;99.90
11379;DHT22;5744;59.392;16.748;2024-03-25T09:34:19;4.60;99.90
11379;DHT22;5744;59.392;16.748;2024-03-25T09:36:45;4.50;99.90
11379;DHT22;5744;59.392;16.748;2024-03-25T09:39:10;4.50;99.90
11379;DHT22;5744;59.392;16.748;2024-03-25T09:41:36;4.40;99.90
11379;DHT22;5744;59.392;16.748;2024-03-25T09:44:03;4.50;99.90
11379;DHT22;5744;59.392;16.748;2024-03-25T09:46:28;4.60;99.90
11379;DHT22;5744;59.392;16.748;2024-03-25T09:48:57;4.70;99.90
11379;DHT22;5744;59.392;16.748;2024-03-25T09:51:23;4.70;99.90
11379;DHT22;5744;59.392;16.748;2024-03-25T09:53:49;4.70;99.90
11379;DHT22;5744;59.392;16.748;2024-03-25T09:56:15;4.70;99.90
11379;DHT22;5744;59.392;16.748;2024-03-25T09:58:41;4.70;99.90
11379;DHT22;5744;59.392;16.748;2024-03-25T10:01:07;4.90;99.90
11379;DHT22;5744;59.392;16.748;2024-03-25T10:03:33;4.90;99.90
11379;DHT22;5744;59.392;16.748;2024-03-25T10:06:02;5.00;99.90
11379;DHT22;5744;59.392;16.748;2024-03-25T10:08:29;4.90;99.90
11379;DHT22;5744;59.392;16.748;2024-03-25T10:10:55;4.90;99.90
11379;DHT22;5744;59.392;16.748;2024-03-25T10:13:21;5.10;99.90
11379;DHT22;5744;59.392;16.748;2024-03-25T10:15:47;5.20;99.90
11379;DHT22;5744;59.392;16.748;2024-03-25T10:18:13;5.30;99.90
11379;DHT22;5744;59.392;16.748;2024-03-25T10:20:39;5.30;99.90
11379;DHT22;5744;59.392;16.748;2024-03-25T10:23:15;5.30;99.90
11379;DHT22;5744;59.392;16.748;2024-03-25T10:25:41;5.30;99.90
11379;DHT22;5744;59.392;16.748;2024-03-25T10:28:08;5.30;99.90
11379;DHT22;5744;59.392;16.748;2024-03-25T10:30:34;5.40;99.90
11379;DHT22;5744;59.392;16.748;2024-03-25T10:33:00;5.50;99.90
11379;DHT22;5744;59.392;16.748;2024-03-25T10:35:26;5.60;99.90
11379;DHT22;5744;59.392;16.748;2024-03-25T10:37:52;5.50;99.90
11379;DHT22;5744;59.392;16.748;2024-03-25T10:40:21;5.40;99.90
11379;DHT22;5744;59.392;16.748;2024-03-25T10:42:49;5.30;99.90
11379;DHT22;5744;59.392;16.748;2024-03-25T10:45:15;5.30;99.90
11379;DHT22;5744;59.392;16.748;2024-03-25T10:47:40;5.30;99.90
11379;DHT22;5744;59.392;16.748;2024-03-25T10:50:07;5.30;99.90
11379;DHT22;5744;59.392;16.748;2024-03-25T10:52:35;5.20;99.90
11379;DHT22;5744;59.392;16.748;2024-03-25T10:55:01;5.10;99.90
11379;DHT22;5744;59.392;16.748;2024-03-25T10:57:30;5.20;99.90
11379;DHT22;5744;59.392;16.748;2024-03-25T10:59:56;5.30;99.90
11379;DHT22;5744;59.392;16.748;2024-03-25T11:02:22;5.40;99.90
11379;DHT22;5744;59.392;16.748;2024-03-25T11:04:49;5.50;99.90
11379;DHT22;5744;59.392;16.748;2024-03-25T11:07:15;5.60;99.90
11379;DHT22;5744;59.392;16.748;2024-03-25T11:09:41;5.70;99.90
11379;DHT22;5744;59.392;16.748;2024-03-25T11:12:09;5.80;99.90
11379;DHT22;5744;59.392;16.748;2024-03-25T11:14:38;5.90;99.90
11379;DHT22;5744;59.392;16.748;2024-03-25T11:17:13;6.00;99.90
11379;DHT22;5744;59.392;16.748;2024-03-25T11:19:39;6.00;99.90
11379;DHT22;5744;59.392;16.748;2024-03-25T11:22:09;6.10;99.90
11379;DHT22;5744;59.392;16.748;2024-03-25T11:24:35;6.10;99.90
11379;DHT22;5744;59.392;16.748;2024-03-25T11:27:01;6.00;99.90
11379;DHT22;5744;59.392;16.748;2024-03-25T11:29:27;6.00;99.90
11379;DHT22;5744;59.392;16.748;2024-03-25T11:31:56;5.80;99.90
11379;DHT22;5744;59.392;16.748;2024-03-25T11:34:24;5.80;99.90
11379;DHT22;5744;59.392;16.748;2024-03-25T11:36:50;5.80;99.90
11379;DHT22;5744;59.392;16.748;2024-03-25T11:39:16;5.80;99.90
11379;DHT22;5744;59.392;16.748;2024-03-25T11:41:42;5.80;99.90
11379;DHT22;5744;59.392;16.748;2024-03-25T11:44:08;5.80;99.90
11379;DHT22;5744;59.392;16.748;2024-03-25T11:46:35;5.90;99.90
11379;DHT22;5744;59.392;16.748;2024-03-25T11:49:04;5.90;99.90
11379;DHT22;5744;59.392;16.748;2024-03-25T11:51:31;5.90;99.90
11379;DHT22;5744;59.392;16.748;2024-03-25T11:53:56;6.00;99.90
11379;DHT22;5744;59.392;16.748;2024-03-25T11:56:23;6.10;99.90
11379;DHT22;5744;59.392;16.748;2024-03-25T11:58:49;6.10;99.90
11379;DHT22;5744;59.392;16.748;2024-03-25T12:01:15;6.20;99.90
11379;DHT22;5744;59.392;16.748;2024-03-25T12:03:40;6.20;99.90
11379;DHT22;5744;59.392;16.748;2024-03-25T12:06:09;6.20;99.90
11379;DHT22;5744;59.392;16.748;2024-03-25T12:08:35;6.30;99.90
11379;DHT22;5744;59.392;16.748;2024-03-25T12:11:01;6.30;99.90
11379;DHT22;5744;59.392;16.748;2024-03-25T12:13:42;6.30;99.90
11379;DHT22;5744;59.392;16.748;2024-03-25T12:16:09;6.40;99.90
11379;DHT22;5744;59.392;16.748;2024-03-25T12:18:35;6.40;99.90
11379;DHT22;5744;59.392;16.748;2024-03-25T12:21:01;6.40;99.90
11379;DHT22;5744;59.392;16.748;2024-03-25T12:23:31;6.40;99.90
11379;DHT22;5744;59.392;16.748;2024-03-25T12:25:58;6.40;99.90
11379;DHT22;5744;59.392;16.748;2024-03-25T12:28:24;6.40;99.90
11379;DHT22;5744;59.392;16.748;2024-03-25T12:30:50;6.50;99.90
11379;DHT22;5744;59.392;16.748;2024-03-25T12:33:16;6.50;99.90
11379;DHT22;5744;59.392;16.748;2024-03-25T12:35:44;6.60;99.90
11379;DHT22;5744;59.392;16.748;2024-03-25T12:38:20;6.50;99.90
11379;DHT22;5744;59.392;16.748;2024-03-25T12:40:49;6.50;99.90
11379;DHT22;5744;59.392;16.748;2024-03-25T12:43:15;6.50;99.90
11379;DHT22;5744;59.392;16.748;2024-03-25T12:45:41;6.60;99.90
11379;DHT22;5744;59.392;16.748;2024-03-25T12:48:07;6.60;99.90
11379;DHT22;5744;59.392;16.748;2024-03-25T12:50:33;6.50;99.90
11379;DHT22;5744;59.392;16.748;2024-03-25T12:52:59;6.50;99.90
11379;DHT22;5744;59.392;16.748;2024-03-25T12:55:24;6.50;99.90
11379;DHT22;5744;59.392;16.748;2024-03-25T12:57:53;6.60;99.90
11379;DHT22;5744;59.392;16.748;2024-03-25T13:00:19;6.70;99.90
11379;DHT22;5744;59.392;16.748;2024-03-25T13:02:44;6.70;99.90
11379;DHT22;5744;59.392;16.748;2024-03-25T13:05:10;6.70;99.90
11379;DHT22;5744;59.392;16.748;2024-03-25T13:07:36;6.70;99.90
11379;DHT22;5744;59.392;16.748;2024-03-25T13:10:02;6.60;99.90
11379;DHT22;5744;59.392;16.748;2024-03-25T13:12:28;6.50;99.90
11379;DHT22;5744;59.392;16.748;2024-03-25T13:14:57;6.50;99.90
11379;DHT22;5744;59.392;16.748;2024-03-25T13:17:23;6.50;99.90
11379;DHT22;5744;59.392;16.748;2024-03-25T13:19:48;6.50;99.90
11379;DHT22;5744;59.392;16.748;2024-03-25T13:22:14;6.50;99.90
11379;DHT22;5744;59.392;16.748;2024-03-25T13:24:40;6.50;99.90
11379;DHT22;5744;59.392;16.748;2024-03-25T13:27:06;6.50;99.90
11379;DHT22;5744;59.392;16.748;2024-03-25T13:29:32;6.50;99.90
11379;DHT22;5744;59.392;16.748;2024-03-25T13:32:00;6.50;99.90
11379;DHT22;5744;59.392;16.748;2024-03-25T13:34:26;6.50;99.90
11379;DHT22;5744;59.392;16.748;2024-03-25T13:36:52;6.40;99.90
11379;DHT22;5744;59.392;16.748;2024-03-25T13:39:18;6.40;99.90
11379;DHT22;5744;59.392;16.748;2024-03-25T13:41:44;6.50;99.90
11379;DHT22;5744;59.392;16.748;2024-03-25T13:44:10;6.40;99.90
11379;DHT22;5744;59.392;16.748;2024-03-25T13:46:36;6.40;99.90
11379;DHT22;5744;59.392;16.748;2024-03-25T13:49:04;6.30;99.90
11379;DHT22;5744;59.392;16.748;2024-03-25T13:51:30;6.20;99.90
11379;DHT22;5744;59.392;16.748;2024-03-25T13:53:56;6.10;99.90
11379;DHT22;5744;59.392;16.748;2024-03-25T13:56:22;6.10;99.90
11379;DHT22;5744;59.392;16.748;2024-03-25T13:58:47;6.00;99.90
11379;DHT22;5744;59.392;16.748;2024-03-25T14:01:13;6.00;99.90
11379;DHT22;5744;59.392;16.748;2024-03-25T14:03:39;6.00;99.90
11379;DHT22;5744;59.392;16.748;2024-03-25T14:06:08;5.90;99.90
11379;DHT22;5744;59.392;16.748;2024-03-25T14:08:33;5.80;99.90
11379;DHT22;5744;59.392;16.748;2024-03-25T14:10:59;5.90;99.90
11379;DHT22;5744;59.392;16.748;2024-03-25T14:13:25;5.80;99.90
11379;DHT22;5744;59.392;16.748;2024-03-25T14:15:51;5.80;99.90
11379;DHT22;5744;59.392;16.748;2024-03-25T14:18:17;5.70;99.90
11379;DHT22;5744;59.392;16.748;2024-03-25T14:20:43;5.60;99.90
11379;DHT22;5744;59.392;16.748;2024-03-25T14:23:11;5.60;99.90
11379;DHT22;5744;59.392;16.748;2024-03-25T14:25:37;5.60;99.90
11379;DHT22;5744;59.392;16.748;2024-03-25T14:28:03;5.50;99.90
11379;DHT22;5744;59.392;16.748;2024-03-25T14:30:29;5.50;99.90
11379;DHT22;5744;59.392;16.748;2024-03-25T14:32:55;5.50;99.90
11379;DHT22;5744;59.392;16.748;2024-03-25T14:35:21;5.40;99.90
11379;DHT22;5744;59.392;16.748;2024-03-25T14:37:46;5.40;99.90
11379;DHT22;5744;59.392;16.748;2024-03-25T14:40:15;5.30;99.90
11379;DHT22;5744;59.392;16.748;2024-03-25T14:42:41;5.30;99.90
11379;DHT22;5744;59.392;16.748;2024-03-25T14:45:07;5.30;99.90
11379;DHT22;5744;59.392;16.748;2024-03-25T14:47:33;5.20;99.90
11379;DHT22;5744;59.392;16.748;2024-03-25T14:49:59;5.20;99.90
11379;DHT22;5744;59.392;16.748;2024-03-25T14:52:25;5.20;99.90
11379;DHT22;5744;59.392;16.748;2024-03-25T14:54:50;5.20;99.90
11379;DHT22;5744;59.392;16.748;2024-03-25T14:57:19;5.20;99.90
11379;DHT22;5744;59.392;16.748;2024-03-25T14:59:45;5.20;99.90
11379;DHT22;5744;59.392;16.748;2024-03-25T15:02:10;5.10;99.90
11379;DHT22;5744;59.392;16.748;2024-03-25T15:04:37;5.10;99.90
11379;DHT22;5744;59.392;16.748;2024-03-25T15:07:03;5.20;99.90
11379;DHT22;5744;59.392;16.748;2024-03-25T15:09:29;5.30;99.90
11379;DHT22;5744;59.392;16.748;2024-03-25T15:11:54;5.20;99.90
11379;DHT22;5744;59.392;16.748;2024-03-25T15:14:23;5.10;99.90
11379;DHT22;5744;59.392;16.748;2024-03-25T15:16:49;5.10;99.90
11379;DHT22;5744;59.392;16.748;2024-03-25T15:19:15;5.10;99.90
11379;DHT22;5744;59.392;16.748;2024-03-25T15:21:40;5.20;99.90
11379;DHT22;5744;59.392;16.748;2024-03-25T15:24:06;5.10;99.90
11379;DHT22;5744;59.392;16.748;2024-03-25T15:26:32;5.10;99.90
11379;DHT22;5744;59.392;16.748;2024-03-25T15:28:58;5.10;99.90
11379;DHT22;5744;59.392;16.748;2024-03-25T15:31:26;5.00;99.90
11379;DHT22;5744;59.392;16.748;2024-03-25T15:33:52;5.00;99.90
11379;DHT22;5744;59.392;16.748;2024-03-25T15:36:18;5.00;99.90
11379;DHT22;5744;59.392;16.748;2024-03-25T15:38:44;4.90;99.90